Time;durP1;ratioP1;P1;durP2;ratioP2;P2;SDS_P1;SDS_P2;PMS_P1;PMS_P2;Temp;Humidity;BMP_temperature;BMP_pressure;BME280_temperature;BME280_humidity;BME280_pressure;Samples;Min_cycle;Max_cycle;Signal;HPM_P1;HPM_P2
2022/12/28 00:01:14;;;;;;;4.00;1.90;;;28.90;78.80;;;;;;5050355;28;20785;-91
2022/12/28 00:03:41;;;;;;;4.45;1.90;;;29.10;78.10;;;;;;5051068;28;20899;-90
2022/12/28 00:06:09;;;;;;;4.40;1.67;;;29.40;75.10;;;;;;5049842;28;20411;-91
2022/12/28 00:08:36;;;;;;;8.23;2.20;;;29.50;75.30;;;;;;5044711;28;20392;-94
2022/12/28 00:11:10;;;;;;;4.85;2.00;;;29.80;74.00;;;;;;5051407;28;20398;-89
2022/12/28 00:13:37;;;;;;;2.83;1.70;;;30.00;73.60;;;;;;5048464;28;20376;-89
2022/12/28 00:16:15;;;;;;;4.47;1.73;;;30.10;72.60;;;;;;5048938;28;20400;-89
2022/12/28 00:18:42;;;;;;;2.20;1.50;;;30.40;68.60;;;;;;5055646;28;20366;-89
2022/12/28 00:21:09;;;;;;;1.67;1.52;;;30.50;68.90;;;;;;5051287;28;20388;-91
2022/12/28 00:23:36;;;;;;;2.60;1.55;;;30.60;67.40;;;;;;5053655;28;20391;-93
2022/12/28 00:26:13;;;;;;;1.73;1.40;;;30.70;64.70;;;;;;5052182;28;20994;-91
2022/12/28 00:28:40;;;;;;;2.08;1.40;;;30.70;63.70;;;;;;5050730;28;20384;-88
2022/12/28 00:31:09;;;;;;;2.28;1.48;;;30.70;61.70;;;;;;5055287;28;20758;-90
2022/12/28 00:33:36;;;;;;;1.50;1.30;;;30.90;62.30;;;;;;5052132;28;20474;-88
2022/12/28 00:36:04;;;;;;;3.00;1.50;;;31.30;60.40;;;;;;5051052;28;20372;-95
2022/12/28 00:38:31;;;;;;;2.63;1.70;;;31.40;61.10;;;;;;5054523;28;20437;-96
2022/12/28 00:40:58;;;;;;;1.60;1.20;;;31.70;61.40;;;;;;5053472;28;20407;-92
2022/12/28 00:43:26;;;;;;;4.07;1.70;;;32.10;57.80;;;;;;5053817;28;20386;-93
2022/12/28 00:45:53;;;;;;;2.42;1.35;;;32.30;56.90;;;;;;5053999;28;20404;-87
2022/12/28 00:48:20;;;;;;;2.25;1.30;;;32.30;56.60;;;;;;5052894;28;20411;-90
2022/12/28 00:50:47;;;;;;;2.07;1.10;;;32.50;56.20;;;;;;5052394;28;20388;-92
2022/12/28 00:53:14;;;;;;;1.83;1.00;;;32.90;54.80;;;;;;5051412;28;20387;-91
2022/12/28 00:55:42;;;;;;;1.35;1.10;;;33.00;51.50;;;;;;5047948;28;20388;-91
2022/12/28 00:58:09;;;;;;;1.10;1.00;;;32.90;51.30;;;;;;5049948;28;20456;-89
2022/12/28 01:00:37;;;;;;;1.95;1.20;;;33.00;51.90;;;;;;5051627;28;20410;-89
2022/12/28 01:03:04;;;;;;;1.90;1.10;;;33.20;52.10;;;;;;5054943;28;20379;-91
2022/12/28 01:05:33;;;;;;;1.67;1.10;;;33.50;50.90;;;;;;5053833;28;20407;-89
2022/12/28 01:07:59;;;;;;;3.08;0.98;;;33.20;49.40;;;;;;5054385;28;20441;-92
2022/12/28 01:10:26;;;;;;;0.70;0.70;;;33.20;48.40;;;;;;5051144;28;20736;-86
2022/12/28 01:12:54;;;;;;;0.80;0.80;;;33.00;45.30;;;;;;5050205;28;20398;-94
2022/12/28 01:15:21;;;;;;;1.70;0.70;;;33.00;44.70;;;;;;5037162;28;20783;-92
2022/12/28 01:17:48;;;;;;;0.70;0.70;;;33.00;45.90;;;;;;5047057;28;20387;-87
2022/12/28 01:20:15;;;;;;;1.13;0.70;;;33.10;47.00;;;;;;5047107;28;20467;-89
2022/12/28 01:22:42;;;;;;;1.50;0.80;;;33.20;46.70;;;;;;5050547;28;20875;-88
2022/12/28 01:25:09;;;;;;;1.50;0.70;;;33.30;47.00;;;;;;5051980;28;20871;-88
2022/12/28 01:27:36;;;;;;;1.67;0.85;;;33.70;45.40;;;;;;5052048;28;20466;-88
2022/12/28 01:30:04;;;;;;;1.30;0.60;;;33.80;46.50;;;;;;5053424;28;20390;-92
2022/12/28 01:32:30;;;;;;;0.60;0.60;;;33.90;43.40;;;;;;5055200;28;20386;-89
2022/12/28 01:34:57;;;;;;;1.15;0.60;;;33.90;43.70;;;;;;5056693;28;20395;-90
2022/12/28 01:37:24;;;;;;;0.57;0.52;;;33.90;43.80;;;;;;5054494;28;20422;-90
2022/12/28 01:39:51;;;;;;;1.13;0.90;;;34.10;44.00;;;;;;5056605;28;20376;-89
2022/12/28 01:42:24;;;;;;;0.63;0.60;;;34.40;44.40;;;;;;5056763;28;20390;-90
2022/12/28 01:44:51;;;;;;;1.73;0.80;;;34.30;43.10;;;;;;5036640;28;20409;-90
2022/12/28 01:47:28;;;;;;;1.20;0.80;;;34.20;43.40;;;;;;5054766;28;20379;-94
2022/12/28 01:50:14;;;;;;;2.05;1.40;;;34.70;43.80;;;;;;5037482;28;20392;-89
2022/12/28 01:52:54;;;;;;;1.58;1.23;;;34.80;45.10;;;;;;5056074;28;20376;-94
2022/12/28 01:55:34;;;;;;;6.50;1.50;;;35.00;45.70;;;;;;5055950;28;20375;-91
2022/12/28 01:58:24;;;;;;;5.50;1.60;;;35.60;45.20;;;;;;5033003;28;20412;-84
2022/12/28 02:00:51;;;;;;;4.07;1.10;;;36.30;43.30;;;;;;5053383;28;20380;-83
2022/12/28 02:03:22;;;;;;;2.97;1.00;;;36.10;41.80;;;;;;5061758;28;20444;-84
2022/12/28 02:05:51;;;;;;;2.03;1.00;;;36.10;42.60;;;;;;5067203;28;20890;-81
2022/12/28 02:08:36;;;;;;;3.15;0.90;;;36.40;41.90;;;;;;5071754;28;20394;-83
2022/12/28 02:11:04;;;;;;;1.30;0.88;;;36.30;42.50;;;;;;5071286;28;20378;-84
2022/12/28 02:13:31;;;;;;;2.22;0.90;;;36.70;41.20;;;;;;5059231;28;20401;-85
2022/12/28 02:15:58;;;;;;;1.50;0.70;;;36.60;40.70;;;;;;5072110;28;20382;-83
2022/12/28 02:18:26;;;;;;;1.40;0.70;;;36.80;40.80;;;;;;5050377;28;20393;-83
2022/12/28 02:21:17;;;;;;;1.17;0.90;;;37.70;39.40;;;;;;5069792;28;20374;-88
2022/12/28 02:24:18;;;;;;;2.10;0.70;;;38.30;39.20;;;;;;5058005;28;20389;-87
2022/12/28 02:26:51;;;;;;;1.15;0.90;;;38.70;38.10;;;;;;5070992;28;20408;-89
2022/12/28 02:29:54;;;;;;;1.20;1.00;;;38.90;38.70;;;;;;5070340;28;20377;-84
2022/12/28 02:32:42;;;;;;;2.33;0.88;;;39.00;38.20;;;;;;5045805;28;20390;-88
2022/12/28 02:35:14;;;;;;;1.98;0.90;;;38.60;38.30;;;;;;5070431;28;20760;-83
2022/12/28 02:37:50;;;;;;;0.80;0.80;;;39.00;38.60;;;;;;5071999;28;20867;-85
2022/12/28 02:40:25;;;;;;;1.40;0.80;;;39.30;37.90;;;;;;5071042;28;20433;-83
2022/12/28 02:42:54;;;;;;;2.85;0.80;;;39.20;36.80;;;;;;5057584;28;20392;-85
2022/12/28 02:51:54;;;;;;;126.93;19.02;;;39.40;38.40;;;;;;5050873;28;20402;-86
2022/12/28 02:57:51;;;;;;;50.25;7.63;;;40.10;37.40;;;;;;5051113;28;20399;-83
2022/12/28 03:00:20;;;;;;;3.25;1.05;;;40.40;36.30;;;;;;5042157;28;20445;-82
2022/12/28 03:02:59;;;;;;;39.90;7.53;;;40.40;36.40;;;;;;5045061;28;20449;-85
2022/12/28 03:08:30;;;;;;;3.97;1.33;;;40.30;36.90;;;;;;5040366;28;20894;-86
2022/12/28 03:11:14;;;;;;;1.48;0.80;;;40.50;37.10;;;;;;5051450;28;20482;-82
2022/12/28 03:13:52;;;;;;;1.48;0.90;;;39.60;36.30;;;;;;5055783;28;20386;-81
2022/12/28 03:33:27;;;;;;;1.20;0.90;;;42.60;35.10;;;;;;5009320;28;20395;-84
2022/12/28 03:36:30;;;;;;;1.90;1.00;;;42.40;35.40;;;;;;5009472;28;20383;-82
2022/12/28 03:39:09;;;;;;;0.80;0.80;;;42.50;35.40;;;;;;4997749;28;20725;-82
2022/12/28 03:41:42;;;;;;;1.20;1.00;;;43.10;35.60;;;;;;5006329;28;20707;-83
2022/12/28 03:44:26;;;;;;;1.20;0.90;;;42.40;35.60;;;;;;5009322;28;20802;-86
2022/12/28 03:47:00;;;;;;;1.77;0.90;;;42.40;35.20;;;;;;5003966;28;20461;-83
2022/12/28 03:49:28;;;;;;;14.07;3.17;;;42.40;35.30;;;;;;5008305;28;20383;-84
2022/12/28 03:51:56;;;;;;;2.40;0.90;;;42.80;34.70;;;;;;4999900;28;20398;-82
2022/12/28 03:54:23;;;;;;;2.70;1.08;;;42.70;34.60;;;;;;5003815;28;20925;-82
2022/12/28 03:56:51;;;;;;;2.42;0.95;;;42.70;35.10;;;;;;5035071;28;20396;-84
2022/12/28 03:59:19;;;;;;;1.50;0.80;;;42.70;35.70;;;;;;5033928;28;20388;-86
2022/12/28 04:01:46;;;;;;;3.85;1.40;;;42.70;35.10;;;;;;5046738;28;20812;-85
2022/12/28 04:04:13;;;;;;;1.08;0.90;;;42.40;35.20;;;;;;5051456;28;20376;-85
2022/12/28 04:06:40;;;;;;;1.73;1.00;;;42.30;34.90;;;;;;5050186;28;20399;-81
2022/12/28 04:09:07;;;;;;;1.30;1.20;;;42.10;34.50;;;;;;5052058;28;20380;-84
2022/12/28 04:11:34;;;;;;;1.33;1.10;;;42.70;34.60;;;;;;5057153;28;20454;-83
2022/12/28 04:14:03;;;;;;;1.80;0.80;;;43.10;34.40;;;;;;5064148;28;20533;-83
2022/12/28 04:16:30;;;;;;;1.15;0.90;;;43.10;34.80;;;;;;5069513;28;20374;-81
2022/12/28 04:18:57;;;;;;;1.60;0.97;;;43.20;35.00;;;;;;5069027;28;20370;-82
2022/12/28 04:21:24;;;;;;;2.85;1.30;;;43.60;34.40;;;;;;5056792;28;20401;-83
2022/12/28 04:23:51;;;;;;;2.40;1.10;;;43.60;34.70;;;;;;5057018;28;20376;-84
2022/12/28 04:26:18;;;;;;;1.70;1.10;;;43.00;34.50;;;;;;5051231;28;20487;-86
2022/12/28 04:28:45;;;;;;;3.83;1.13;;;42.80;36.30;;;;;;5050555;28;20433;-85
2022/12/28 04:31:13;;;;;;;2.22;1.25;;;42.10;40.00;;;;;;5051536;28;20738;-87
2022/12/28 04:33:40;;;;;;;2.80;1.20;;;42.00;40.80;;;;;;5037202;28;20379;-87
2022/12/28 04:36:17;;;;;;;2.67;1.20;;;42.20;41.10;;;;;;5051448;28;20379;-87
2022/12/28 04:38:44;;;;;;;5.00;1.40;;;42.10;41.40;;;;;;5068219;28;20381;-87
2022/12/28 04:41:11;;;;;;;2.30;1.23;;;42.00;41.30;;;;;;5064637;28;20892;-86
2022/12/28 04:43:39;;;;;;;3.33;1.20;;;41.80;41.10;;;;;;5069186;28;20378;-87
2022/12/28 04:46:10;;;;;;;3.13;1.20;;;41.80;40.80;;;;;;5068885;28;20394;-88
2022/12/28 04:48:37;;;;;;;3.90;1.30;;;41.80;41.00;;;;;;5069551;28;20404;-89
2022/12/28 04:51:10;;;;;;;1.65;1.05;;;41.60;41.30;;;;;;5068851;28;20445;-87
2022/12/28 04:53:40;;;;;;;4.68;1.10;;;41.30;41.00;;;;;;5047161;28;20369;-89
2022/12/28 04:56:08;;;;;;;3.42;1.20;;;41.40;41.10;;;;;;5068057;28;20408;-86
2022/12/28 04:58:35;;;;;;;2.57;1.10;;;41.90;40.30;;;;;;5068491;28;20479;-89
2022/12/28 05:01:05;;;;;;;3.45;1.10;;;41.50;40.70;;;;;;5052795;28;20855;-88
2022/12/28 05:03:32;;;;;;;2.70;1.10;;;41.30;41.00;;;;;;5040987;28;20439;-88
2022/12/28 05:06:04;;;;;;;2.23;1.13;;;41.60;40.80;;;;;;5068593;28;20404;-87
2022/12/28 05:08:35;;;;;;;1.38;1.10;;;41.70;41.00;;;;;;5063402;28;20436;-76
2022/12/28 05:11:05;;;;;;;3.85;1.20;;;42.10;41.00;;;;;;5065694;28;20386;-80
2022/12/28 05:13:32;;;;;;;2.45;1.10;;;41.80;40.90;;;;;;5064555;28;20878;-79
2022/12/28 05:16:11;;;;;;;2.35;1.00;;;42.00;40.80;;;;;;5065721;28;20421;-79
2022/12/28 05:18:38;;;;;;;3.70;1.08;;;42.20;39.60;;;;;;5048662;28;20439;-81
2022/12/28 05:21:08;;;;;;;2.20;1.00;;;42.30;38.90;;;;;;5048210;28;20381;-78
2022/12/28 05:23:37;;;;;;;3.60;1.60;;;42.20;39.30;;;;;;5036423;28;20479;-81
2022/12/28 05:26:05;;;;;;;3.60;1.40;;;42.30;38.90;;;;;;5053057;28;20444;-80
2022/12/28 05:28:32;;;;;;;2.60;1.00;;;42.30;38.80;;;;;;5049952;28;20888;-81
2022/12/28 05:31:04;;;;;;;1.88;0.93;;;42.30;38.20;;;;;;5057620;28;20882;-81
2022/12/28 05:33:34;;;;;;;3.97;1.03;;;42.10;39.20;;;;;;5060290;28;20428;-81
2022/12/28 05:36:13;;;;;;;1.23;1.00;;;42.40;38.60;;;;;;5061760;28;20384;-79
2022/12/28 05:38:40;;;;;;;2.08;1.00;;;42.20;39.10;;;;;;5055214;28;21004;-80
2022/12/28 05:41:10;;;;;;;2.38;1.10;;;42.30;39.20;;;;;;5043691;28;20391;-79
2022/12/28 05:43:37;;;;;;;2.45;1.00;;;42.20;39.30;;;;;;5057570;28;20470;-77
2022/12/28 05:46:07;;;;;;;1.90;1.10;;;42.20;40.10;;;;;;5063481;28;20411;-79
2022/12/28 05:48:37;;;;;;;2.75;1.10;;;42.10;40.00;;;;;;5063914;28;20472;-78
2022/12/28 05:51:25;;;;;;;2.58;1.10;;;42.30;39.10;;;;;;5046757;28;20761;-82
2022/12/28 05:53:52;;;;;;;1.90;1.00;;;42.30;40.20;;;;;;5045854;28;20412;-81
2022/12/28 05:56:21;;;;;;;2.47;1.10;;;41.90;40.40;;;;;;5053971;28;20808;-79
2022/12/28 05:58:57;;;;;;;3.40;1.27;;;41.90;40.20;;;;;;5052283;28;20475;-82
2022/12/28 06:01:27;;;;;;;1.70;1.05;;;41.70;40.30;;;;;;5051140;28;20382;-81
2022/12/28 06:04:06;;;;;;;2.45;1.00;;;41.80;40.70;;;;;;5059451;28;20463;-81
2022/12/28 06:06:35;;;;;;;2.47;1.10;;;41.90;40.40;;;;;;5052372;28;20756;-79
2022/12/28 06:09:02;;;;;;;2.83;1.20;;;41.90;39.70;;;;;;5049265;28;20384;-81
2022/12/28 06:11:30;;;;;;;2.23;1.03;;;41.70;40.30;;;;;;5049028;28;20407;-82
2022/12/28 06:13:58;;;;;;;4.30;1.20;;;41.40;40.60;;;;;;5053086;28;20395;-83
2022/12/28 06:16:30;;;;;;;2.75;1.13;;;41.20;40.90;;;;;;5065043;28;20815;-83
2022/12/28 06:18:57;;;;;;;2.37;1.10;;;41.10;41.20;;;;;;5049767;28;20879;-80
2022/12/28 06:21:29;;;;;;;5.78;1.08;;;40.80;42.00;;;;;;5045680;28;20484;-80
2022/12/28 06:23:59;;;;;;;3.65;1.33;;;40.60;41.90;;;;;;5050088;28;20391;-82
2022/12/28 06:26:28;;;;;;;2.75;1.10;;;40.40;41.80;;;;;;5051529;28;20541;-82
2022/12/28 06:28:55;;;;;;;3.35;1.17;;;39.80;42.90;;;;;;5045045;28;20855;-84
2022/12/28 06:31:27;;;;;;;4.40;1.20;;;39.20;43.50;;;;;;5041915;28;20393;-82
2022/12/28 06:33:56;;;;;;;2.95;1.20;;;39.30;43.70;;;;;;5051494;28;20386;-80
2022/12/28 06:36:24;;;;;;;2.78;1.20;;;39.60;43.20;;;;;;5047552;28;20388;-83
2022/12/28 06:38:53;;;;;;;5.47;1.02;;;39.60;42.40;;;;;;5064113;28;20405;-83
2022/12/28 06:41:20;;;;;;;4.20;1.20;;;39.50;42.10;;;;;;5066933;28;20384;-92
2022/12/28 06:43:49;;;;;;;3.47;1.10;;;39.70;42.50;;;;;;5067091;28;20863;-84
2022/12/28 06:46:17;;;;;;;3.08;1.30;;;39.70;43.30;;;;;;5052396;28;20407;-80
2022/12/28 06:48:44;;;;;;;2.88;1.23;;;39.80;43.90;;;;;;5056503;28;20446;-79
2022/12/28 06:51:14;;;;;;;3.10;1.40;;;39.80;44.00;;;;;;5053366;28;20412;-82
2022/12/28 06:53:41;;;;;;;3.83;1.20;;;39.80;44.20;;;;;;5043645;28;20735;-81
2022/12/28 06:56:14;;;;;;;5.22;1.30;;;39.90;44.10;;;;;;5055537;28;20924;-81
2022/12/28 06:58:41;;;;;;;2.87;1.30;;;39.70;44.30;;;;;;5066998;28;20382;-81
2022/12/28 07:01:11;;;;;;;5.38;1.40;;;39.60;45.30;;;;;;5046899;28;20871;-85
2022/12/28 07:03:38;;;;;;;3.03;1.27;;;39.70;45.00;;;;;;5044710;28;20423;-80
2022/12/28 07:06:06;;;;;;;3.47;1.20;;;39.50;44.00;;;;;;5061798;28;20398;-81
2022/12/28 07:08:34;;;;;;;3.67;1.20;;;39.50;44.20;;;;;;5051709;28;20398;-82
2022/12/28 07:11:10;;;;;;;4.90;1.38;;;39.00;45.30;;;;;;5062191;28;20465;-79
2022/12/28 07:13:37;;;;;;;4.75;1.40;;;39.00;46.00;;;;;;5041288;28;20394;-83
2022/12/28 07:16:06;;;;;;;2.88;1.33;;;38.80;46.20;;;;;;5048611;28;20390;-79
2022/12/28 07:18:34;;;;;;;3.92;1.50;;;38.60;46.30;;;;;;5061052;28;20547;-79
2022/12/28 07:21:16;;;;;;;3.40;1.33;;;38.60;46.60;;;;;;5068806;28;20472;-80
2022/12/28 07:23:43;;;;;;;4.85;1.30;;;38.40;46.60;;;;;;5066709;28;20595;-79
2022/12/28 07:26:20;;;;;;;4.47;1.48;;;38.40;47.20;;;;;;5036625;28;20607;-81
2022/12/28 07:28:49;;;;;;;2.78;1.30;;;38.30;47.30;;;;;;5059317;28;20380;-81
2022/12/28 07:31:21;;;;;;;4.75;1.58;;;38.30;47.40;;;;;;5052868;28;20379;-80
2022/12/28 07:33:49;;;;;;;4.77;1.60;;;38.10;47.80;;;;;;5059522;28;20379;-80
2022/12/28 07:36:19;;;;;;;3.67;1.50;;;37.80;48.10;;;;;;5042136;28;20393;-84
2022/12/28 07:38:46;;;;;;;3.88;1.50;;;37.60;48.50;;;;;;5052238;28;20391;-87
2022/12/28 07:41:16;;;;;;;5.95;1.50;;;37.60;48.50;;;;;;5048406;28;20392;-81
2022/12/28 07:43:43;;;;;;;5.17;1.37;;;37.20;48.40;;;;;;5045903;28;20404;-83
2022/12/28 07:46:13;;;;;;;4.63;1.60;;;36.60;49.30;;;;;;5048203;28;20403;-81
2022/12/28 07:48:41;;;;;;;4.80;1.80;;;36.20;50.40;;;;;;5040790;28;20422;-80
2022/12/28 07:51:20;;;;;;;6.60;1.80;;;36.10;50.50;;;;;;5050645;28;20407;-87
2022/12/28 07:53:49;;;;;;;4.75;1.70;;;36.00;50.80;;;;;;5049520;28;20417;-83
2022/12/28 07:56:17;;;;;;;6.15;1.50;;;35.80;51.00;;;;;;5040532;28;20391;-85
2022/12/28 07:58:53;;;;;;;5.22;1.70;;;35.80;50.90;;;;;;5037153;28;20918;-85
2022/12/28 08:01:22;;;;;;;5.05;1.60;;;35.60;51.00;;;;;;5047145;28;20391;-85
2022/12/28 08:03:53;;;;;;;4.30;1.60;;;35.30;51.70;;;;;;5023275;28;20832;-84
2022/12/28 08:06:22;;;;;;;4.20;1.70;;;34.90;52.80;;;;;;5049204;28;20518;-83
2022/12/28 08:08:51;;;;;;;6.22;1.70;;;34.30;53.30;;;;;;5049755;28;20773;-84
2022/12/28 08:11:23;;;;;;;4.93;1.75;;;33.90;54.80;;;;;;5050241;28;20761;-86
2022/12/28 08:13:52;;;;;;;6.10;1.80;;;33.60;55.20;;;;;;5045022;28;20387;-84
2022/12/28 08:16:21;;;;;;;6.20;1.50;;;33.10;55.60;;;;;;5032568;28;20386;-83
2022/12/28 08:18:49;;;;;;;4.72;1.70;;;32.60;56.50;;;;;;5042994;28;20385;-83
2022/12/28 08:21:20;;;;;;;6.35;1.73;;;32.40;57.20;;;;;;5049161;28;20388;-82
2022/12/28 08:23:47;;;;;;;6.05;1.83;;;32.20;57.60;;;;;;5043711;28;20410;-85
2022/12/28 08:26:20;;;;;;;5.00;1.60;;;32.20;58.20;;;;;;5049547;28;20910;-82
2022/12/28 08:28:49;;;;;;;6.93;1.80;;;32.20;58.40;;;;;;5037621;28;20388;-80
2022/12/28 08:31:22;;;;;;;6.03;2.00;;;32.20;58.40;;;;;;5045231;28;20389;-82
2022/12/28 08:33:50;;;;;;;6.80;1.90;;;32.20;58.30;;;;;;5040863;28;20385;-82
2022/12/28 08:36:17;;;;;;;4.77;1.70;;;32.10;58.90;;;;;;5050028;28;20383;-86
2022/12/28 08:38:45;;;;;;;6.00;1.93;;;32.00;59.00;;;;;;5048835;28;20883;-83
2022/12/28 08:41:15;;;;;;;6.18;1.90;;;32.00;59.00;;;;;;5054047;28;20379;-85
2022/12/28 08:43:43;;;;;;;5.47;1.80;;;31.90;59.40;;;;;;5049554;28;20396;-83
2022/12/28 08:46:12;;;;;;;7.72;2.03;;;31.70;60.10;;;;;;5047459;28;20877;-86
2022/12/28 08:48:40;;;;;;;7.55;2.10;;;31.30;61.10;;;;;;5052699;28;20399;-88
2022/12/28 08:51:13;;;;;;;6.57;1.90;;;31.10;62.10;;;;;;5051617;28;20388;-87
2022/12/28 08:53:41;;;;;;;7.95;2.10;;;30.70;63.00;;;;;;5054024;28;20930;-87
2022/12/28 08:56:12;;;;;;;6.05;1.95;;;30.50;63.60;;;;;;5052865;28;20931;-82
2022/12/28 08:58:40;;;;;;;6.55;2.00;;;30.20;64.50;;;;;;5052469;28;20377;-83
2022/12/28 09:01:13;;;;;;;7.00;2.10;;;29.90;65.50;;;;;;5050310;28;20383;-86
2022/12/28 09:03:42;;;;;;;7.60;2.10;;;29.70;66.20;;;;;;5053536;28;20470;-83
2022/12/28 09:06:15;;;;;;;6.68;2.08;;;29.50;66.80;;;;;;5052533;28;20518;-82
2022/12/28 09:08:43;;;;;;;8.93;2.15;;;29.30;67.50;;;;;;5053741;28;20802;-83
2022/12/28 09:11:13;;;;;;;5.95;2.10;;;29.20;68.20;;;;;;5053415;28;20423;-85
2022/12/28 09:13:40;;;;;;;7.95;2.20;;;29.00;68.60;;;;;;5045162;28;20420;-83
2022/12/28 09:16:13;;;;;;;6.97;2.17;;;28.90;69.10;;;;;;5051453;28;20867;-86
2022/12/28 09:18:41;;;;;;;8.10;2.30;;;28.80;69.60;;;;;;5052992;28;20688;-85
2022/12/28 09:21:20;;;;;;;7.05;2.10;;;28.60;70.00;;;;;;5053428;28;20384;-86
2022/12/28 09:23:48;;;;;;;9.32;2.17;;;28.50;70.50;;;;;;5051762;28;20410;-84
2022/12/28 09:26:18;;;;;;;10.27;2.05;;;28.30;71.00;;;;;;5053141;28;20493;-86
2022/12/28 09:28:50;;;;;;;9.40;2.30;;;28.20;71.60;;;;;;5052127;28;20368;-83
2022/12/28 09:31:18;;;;;;;8.10;2.40;;;28.20;72.20;;;;;;5048203;28;20462;-85
2022/12/28 09:33:59;;;;;;;9.88;2.25;;;28.10;72.50;;;;;;5051844;28;20371;-86
2022/12/28 09:36:34;;;;;;;8.40;2.30;;;28.00;73.10;;;;;;5052663;28;20898;-86
2022/12/28 09:39:04;;;;;;;8.07;2.10;;;27.90;74.10;;;;;;5041711;28;20380;-86
2022/12/28 09:41:38;;;;;;;10.45;2.65;;;27.90;74.00;;;;;;5052840;28;20497;-85
2022/12/28 09:44:27;;;;;;;9.55;2.35;;;27.90;74.20;;;;;;5052083;28;20391;-84
2022/12/28 09:47:18;;;;;;;9.13;2.57;;;27.90;74.60;;;;;;5051353;28;20491;-84
2022/12/28 09:49:58;;;;;;;7.00;2.20;;;27.90;74.80;;;;;;5033208;28;20409;-85
2022/12/28 09:52:38;;;;;;;8.52;2.20;;;27.80;75.30;;;;;;5051875;28;20411;-84
2022/12/28 09:55:15;;;;;;;7.25;2.30;;;27.80;75.70;;;;;;5044722;28;20387;-87
2022/12/28 09:57:48;;;;;;;7.60;2.50;;;27.80;76.00;;;;;;5051606;28;20376;-84
2022/12/28 10:00:22;;;;;;;9.35;2.65;;;27.80;76.60;;;;;;5050073;28;20749;-86
2022/12/28 10:03:03;;;;;;;7.88;2.35;;;27.60;77.70;;;;;;5041916;28;20376;-83
2022/12/28 10:05:30;;;;;;;8.77;2.70;;;27.50;78.70;;;;;;5051451;28;20407;-87
2022/12/28 10:08:01;;;;;;;9.63;2.50;;;27.50;79.30;;;;;;5060560;28;20406;-83
2022/12/28 10:10:29;;;;;;;8.05;2.30;;;27.40;80.10;;;;;;5061401;28;20391;-86
2022/12/28 10:13:02;;;;;;;11.60;2.42;;;27.30;81.10;;;;;;5052335;28;20400;-86
2022/12/28 10:15:29;;;;;;;8.38;2.42;;;27.20;81.90;;;;;;5054129;28;20453;-87
2022/12/28 10:17:56;;;;;;;9.65;2.40;;;27.10;83.40;;;;;;5063886;28;20850;-85
2022/12/28 10:20:23;;;;;;;7.20;2.38;;;27.20;84.70;;;;;;5054076;28;20415;-86
2022/12/28 10:22:56;;;;;;;10.48;2.60;;;27.00;86.30;;;;;;5050414;28;20434;-86
2022/12/28 10:25:25;;;;;;;9.30;2.67;;;27.00;87.80;;;;;;5051902;28;20411;-85
2022/12/28 10:27:54;;;;;;;8.77;2.40;;;26.90;89.60;;;;;;5043497;28;20395;-83
2022/12/28 10:30:26;;;;;;;9.98;2.55;;;26.90;90.60;;;;;;5048211;28;20384;-83
2022/12/28 10:32:55;;;;;;;10.38;2.53;;;26.80;91.40;;;;;;5046712;28;20726;-83
2022/12/28 10:35:30;;;;;;;8.02;2.47;;;26.70;92.10;;;;;;5034271;28;20383;-86
2022/12/28 10:38:12;;;;;;;10.65;2.72;;;26.70;92.90;;;;;;5052601;28;20386;-82
2022/12/28 10:40:39;;;;;;;11.02;2.50;;;26.60;93.90;;;;;;5034476;28;20514;-83
2022/12/28 10:43:06;;;;;;;8.88;2.70;;;26.60;94.50;;;;;;5052423;28;20469;-86
2022/12/28 10:45:40;;;;;;;9.02;2.60;;;26.50;95.10;;;;;;5052104;28;20803;-82
2022/12/28 10:48:20;;;;;;;8.98;2.40;;;26.40;95.80;;;;;;5052215;28;20929;-84
2022/12/28 10:50:52;;;;;;;10.60;2.60;;;26.40;96.40;;;;;;5046424;28;20383;-84
2022/12/28 10:53:32;;;;;;;7.57;2.58;;;26.30;96.90;;;;;;5039834;28;20384;-82
2022/12/28 10:56:13;;;;;;;9.80;2.47;;;26.40;97.20;;;;;;5044375;28;20398;-82
2022/12/28 10:58:50;;;;;;;10.27;2.55;;;26.40;97.50;;;;;;5050688;28;20391;-87
2022/12/28 11:01:26;;;;;;;10.10;2.50;;;26.30;97.70;;;;;;5046382;28;20387;-85
2022/12/28 11:03:56;;;;;;;8.52;2.42;;;26.30;97.80;;;;;;5048427;28;20868;-85
2022/12/28 11:06:25;;;;;;;8.90;2.65;;;26.30;98.00;;;;;;5052399;28;20752;-82
2022/12/28 11:09:06;;;;;;;10.00;2.70;;;26.30;98.20;;;;;;5047489;28;20453;-85
2022/12/28 11:11:33;;;;;;;9.20;2.85;;;26.20;98.40;;;;;;5047943;28;20403;-86
2022/12/28 11:14:12;;;;;;;7.70;2.47;;;26.20;98.70;;;;;;5051413;28;20383;-83
2022/12/28 11:16:41;;;;;;;8.57;2.67;;;26.20;98.90;;;;;;5043129;28;20383;-81
2022/12/28 11:19:08;;;;;;;10.57;2.70;;;26.30;99.10;;;;;;5041767;28;20379;-81
2022/12/28 11:21:36;;;;;;;13.48;2.63;;;26.20;98.90;;;;;;5025693;28;20391;-81
2022/12/28 11:24:04;;;;;;;10.00;2.50;;;26.30;99.20;;;;;;5051953;28;20376;-84
2022/12/28 11:26:33;;;;;;;10.32;2.70;;;26.30;99.20;;;;;;5051911;28;20507;-83
2022/12/28 11:29:01;;;;;;;8.60;2.50;;;26.30;99.10;;;;;;5033656;28;20379;-82
2022/12/28 11:31:33;;;;;;;7.97;2.50;;;26.30;99.10;;;;;;5029457;28;20394;-81
2022/12/28 11:34:06;;;;;;;11.50;2.75;;;26.20;99.30;;;;;;5028871;28;20411;-80
2022/12/28 11:36:38;;;;;;;9.45;2.50;;;26.20;99.30;;;;;;5052197;28;20867;-81
2022/12/28 11:39:26;;;;;;;9.25;2.60;;;26.10;99.40;;;;;;5042222;28;20419;-81
2022/12/28 11:41:58;;;;;;;10.05;2.65;;;26.10;99.60;;;;;;5050992;28;20937;-80
2022/12/28 11:44:34;;;;;;;9.73;2.60;;;26.00;99.80;;;;;;5049891;28;20439;-82
2022/12/28 11:47:19;;;;;;;8.32;2.50;;;26.00;99.90;;;;;;5047344;28;20449;-80
2022/12/28 11:49:47;;;;;;;9.63;2.90;;;26.00;99.90;;;;;;5050010;28;20398;-82
2022/12/28 11:52:19;;;;;;;9.32;2.70;;;26.00;99.90;;;;;;5050536;28;20384;-81
2022/12/28 11:54:55;;;;;;;7.97;2.60;;;26.00;99.90;;;;;;5039441;28;20740;-83
2022/12/28 11:57:39;;;;;;;9.38;2.78;;;26.00;99.90;;;;;;5032734;28;20397;-85
2022/12/28 12:00:18;;;;;;;9.80;2.40;;;25.90;99.90;;;;;;5046628;28;20379;-85
2022/12/28 12:02:49;;;;;;;12.07;2.60;;;25.70;99.90;;;;;;5045327;28;20513;-82
2022/12/28 12:05:37;;;;;;;11.32;2.78;;;25.60;99.90;;;;;;5050612;28;20406;-83
2022/12/28 12:08:17;;;;;;;9.75;2.70;;;25.50;99.90;;;;;;5046836;28;20446;-83
2022/12/28 12:10:45;;;;;;;12.07;2.75;;;25.40;99.90;;;;;;5045207;28;20893;-82
2022/12/28 12:13:28;;;;;;;8.48;2.67;;;25.30;99.90;;;;;;5047855;28;20875;-81
2022/12/28 12:16:14;;;;;;;9.63;2.60;;;25.20;99.90;;;;;;5049637;28;20387;-81
2022/12/28 12:18:52;;;;;;;7.38;2.65;;;25.10;99.90;;;;;;5050879;28;20384;-83
2022/12/28 12:21:36;;;;;;;10.77;2.83;;;25.10;99.90;;;;;;5051285;28;20463;-81
2022/12/28 12:24:27;;;;;;;11.00;3.17;;;25.00;99.90;;;;;;5050855;28;20419;-85
2022/12/28 12:27:03;;;;;;;12.88;3.10;;;25.00;99.90;;;;;;5049507;28;20454;-81
2022/12/28 12:29:38;;;;;;;11.27;3.00;;;25.00;99.90;;;;;;5050825;28;20792;-84
2022/12/28 12:32:45;;;;;;;11.27;2.80;;;25.00;99.90;;;;;;5049562;28;20396;-82
2022/12/28 12:35:19;;;;;;;9.60;3.00;;;25.00;99.90;;;;;;4968018;28;20389;-81
2022/12/28 12:37:50;;;;;;;11.73;3.10;;;24.90;99.90;;;;;;4968968;28;20430;-82
2022/12/28 12:40:35;;;;;;;8.88;2.75;;;24.80;99.90;;;;;;4956570;28;20386;-82
2022/12/28 12:43:16;;;;;;;11.50;3.05;;;24.70;99.90;;;;;;4968709;28;20402;-84
2022/12/28 12:46:19;;;;;;;14.60;3.20;;;24.70;99.90;;;;;;4968450;28;20418;-83
2022/12/28 12:49:04;;;;;;;11.65;3.28;;;24.60;99.90;;;;;;4968316;28;20394;-83
2022/12/28 12:51:41;;;;;;;13.55;3.20;;;24.60;99.90;;;;;;4968816;28;20422;-82
2022/12/28 12:54:40;;;;;;;9.57;2.87;;;24.50;99.90;;;;;;4967847;28;20417;-86
2022/12/28 12:57:35;;;;;;;13.05;3.42;;;24.50;99.90;;;;;;4961117;28;20434;-83
2022/12/28 13:00:14;;;;;;;13.25;3.10;;;24.50;99.90;;;;;;4945089;28;20411;-85
2022/12/28 13:02:59;;;;;;;9.85;2.80;;;24.40;99.90;;;;;;4933820;28;20523;-81
2022/12/28 13:05:29;;;;;;;9.95;2.85;;;24.50;99.90;;;;;;4946039;28;20521;-82
2022/12/28 13:07:59;;;;;;;11.50;3.00;;;24.40;99.90;;;;;;4934386;28;20404;-81
2022/12/28 13:10:31;;;;;;;12.48;3.13;;;24.30;99.90;;;;;;4957064;28;20396;-84
2022/12/28 13:13:01;;;;;;;10.68;2.85;;;24.30;99.90;;;;;;4998926;28;20386;-83
2022/12/28 13:15:29;;;;;;;10.80;2.70;;;24.20;99.90;;;;;;5007309;28;20384;-84
2022/12/28 13:18:15;;;;;;;14.27;3.10;;;24.20;99.90;;;;;;5007594;28;20426;-81
2022/12/28 13:20:53;;;;;;;12.57;3.25;;;24.10;99.90;;;;;;5002809;28;20899;-82
2022/12/28 13:23:22;;;;;;;13.75;3.20;;;24.10;99.90;;;;;;5000364;28;20807;-85
2022/12/28 13:25:53;;;;;;;10.88;3.05;;;24.10;99.90;;;;;;5007537;28;20455;-85
2022/12/28 13:28:35;;;;;;;12.57;3.67;;;24.00;99.90;;;;;;5003375;28;20516;-82
2022/12/28 13:31:21;;;;;;;11.60;3.23;;;23.90;99.90;;;;;;4999020;28;20416;-85
2022/12/28 13:34:13;;;;;;;12.10;3.60;;;23.80;99.90;;;;;;5010615;28;20395;-85
2022/12/28 13:36:55;;;;;;;14.25;3.53;;;23.80;99.90;;;;;;5016351;28;20393;-86
2022/12/28 13:39:27;;;;;;;11.73;3.25;;;23.80;99.90;;;;;;5057081;28;20413;-85
2022/12/28 13:42:01;;;;;;;12.23;3.55;;;23.70;99.90;;;;;;5065461;28;20393;-86